Time;durP1;ratioP1;P1;durP2;ratioP2;P2;SDS_P1;SDS_P2;PMS_P1;PMS_P2;Temp;Humidity;BMP_temperature;BMP_pressure;BME280_temperature;BME280_humidity;BME280_pressure;Samples;Min_cycle;Max_cycle;Signal;HPM_P1;HPM_P2
2021/10/24 00:01:03;;;;;;;3.67;2.53;;;9.70;99.90;;;;;;5019629;28;20054;-77
2021/10/24 00:03:32;;;;;;;2.97;2.67;;;9.70;99.90;;;;;;5012349;28;20139;-78
2021/10/24 00:05:58;;;;;;;4.53;2.80;;;9.60;99.90;;;;;;5012993;28;20064;-78
2021/10/24 00:08:24;;;;;;;;;;;9.60;99.90;;;;;;4997161;28;20081;-78
2021/10/24 00:10:50;;;;;;;3.05;2.47;;;9.60;99.90;;;;;;5012973;28;20351;-79
2021/10/24 00:13:15;;;;;;;9.40;3.30;;;9.60;99.90;;;;;;5012476;28;20488;-78
2021/10/24 00:15:42;;;;;;;3.20;2.83;;;9.60;99.90;;;;;;5025845;28;20471;-77
2021/10/24 00:18:08;;;;;;;7.57;2.75;;;9.60;99.90;;;;;;5014397;28;20042;-78
2021/10/24 00:20:34;;;;;;;3.35;2.03;;;9.60;99.90;;;;;;5011738;28;20125;-78
2021/10/24 00:23:01;;;;;;;4.10;2.38;;;9.60;99.90;;;;;;5012325;28;20068;-79
2021/10/24 00:25:27;;;;;;;5.90;2.75;;;9.60;99.90;;;;;;5013434;28;20060;-78
2021/10/24 00:27:53;;;;;;;4.70;3.03;;;9.60;99.90;;;;;;5029283;28;20046;-78
2021/10/24 00:30:19;;;;;;;4.70;2.75;;;9.50;99.90;;;;;;5024840;28;20089;-78
2021/10/24 00:32:45;;;;;;;6.15;3.25;;;9.50;99.90;;;;;;5012505;28;20084;-78
2021/10/24 00:35:11;;;;;;;4.63;2.58;;;9.50;99.90;;;;;;5012538;28;20476;-78
2021/10/24 00:37:36;;;;;;;2.20;1.98;;;9.50;99.90;;;;;;5028833;28;20133;-78
2021/10/24 00:40:04;;;;;;;4.57;3.20;;;9.50;99.90;;;;;;5041239;28;20120;-78
2021/10/24 00:42:30;;;;;;;6.13;3.53;;;9.40;99.90;;;;;;5035374;28;20072;-78
2021/10/24 00:44:55;;;;;;;4.43;2.92;;;9.40;99.90;;;;;;5013155;28;20033;-79
2021/10/24 00:47:24;;;;;;;2.53;2.03;;;9.40;99.90;;;;;;5012826;28;20141;-78
2021/10/24 00:49:50;;;;;;;4.75;3.05;;;9.30;99.90;;;;;;5011946;28;20044;-79
2021/10/24 00:52:17;;;;;;;5.97;3.17;;;9.30;99.90;;;;;;5024212;28;20487;-78
2021/10/24 00:54:44;;;;;;;3.63;2.25;;;9.20;99.90;;;;;;5028897;28;20037;-78
2021/10/24 00:57:10;;;;;;;3.72;2.47;;;9.10;99.90;;;;;;5012819;28;20042;-78
2021/10/24 00:59:39;;;;;;;6.43;3.80;;;9.00;99.90;;;;;;5032136;28;20041;-78
2021/10/24 01:02:05;;;;;;;8.18;2.97;;;8.90;99.90;;;;;;5017794;28;20468;-78
2021/10/24 01:04:32;;;;;;;3.13;2.63;;;8.90;99.90;;;;;;5011094;28;20052;-78
2021/10/24 01:07:02;;;;;;;9.15;3.83;;;8.80;99.90;;;;;;5012193;28;20045;-78
2021/10/24 01:09:30;;;;;;;4.07;3.28;;;8.70;99.90;;;;;;5020181;28;20483;-78
2021/10/24 01:11:56;;;;;;;7.13;4.03;;;8.70;99.90;;;;;;5017658;28;20042;-79
2021/10/24 01:14:22;;;;;;;5.75;4.03;;;8.60;99.90;;;;;;5011315;28;20484;-78
2021/10/24 01:16:52;;;;;;;8.98;5.00;;;8.60;99.90;;;;;;5045570;28;20057;-80
2021/10/24 01:19:20;;;;;;;8.77;4.18;;;8.50;99.90;;;;;;5010542;28;20495;-78
2021/10/24 01:21:46;;;;;;;5.55;4.07;;;8.50;99.90;;;;;;5011594;28;20050;-78
2021/10/24 01:24:12;;;;;;;7.15;2.92;;;8.50;99.90;;;;;;5059903;28;20483;-79
2021/10/24 01:26:39;;;;;;;7.40;3.03;;;8.50;99.90;;;;;;5010978;28;20060;-78
2021/10/24 01:29:07;;;;;;;5.82;3.15;;;8.40;99.90;;;;;;5011237;28;20042;-78
2021/10/24 01:31:33;;;;;;;4.15;2.47;;;8.40;99.90;;;;;;5027487;28;20055;-79
2021/10/24 01:33:59;;;;;;;4.53;2.78;;;8.40;99.90;;;;;;5020207;28;20491;-77
2021/10/24 01:36:25;;;;;;;5.95;3.90;;;8.30;99.90;;;;;;5027869;28;20051;-78
2021/10/24 01:38:51;;;;;;;5.18;2.67;;;8.30;99.90;;;;;;5005184;28;20038;-79
2021/10/24 01:41:24;;;;;;;4.28;3.22;;;8.30;99.90;;;;;;5023988;28;20041;-77
2021/10/24 01:43:50;;;;;;;3.40;2.08;;;8.20;99.90;;;;;;5028258;28;20169;-77
2021/10/24 01:46:17;;;;;;;3.88;2.65;;;8.20;99.90;;;;;;5028789;28;20045;-77
2021/10/24 01:48:43;;;;;;;11.70;2.47;;;8.20;99.90;;;;;;5008709;28;20654;-78
2021/10/24 01:51:10;;;;;;;4.03;2.88;;;8.10;99.90;;;;;;5012958;28;20072;-78
2021/10/24 01:53:38;;;;;;;7.40;3.47;;;8.00;99.90;;;;;;5020916;28;20050;-77
2021/10/24 01:56:05;;;;;;;5.03;3.80;;;7.90;99.90;;;;;;5026770;28;20100;-77
2021/10/24 01:58:30;;;;;;;4.30;3.33;;;7.90;99.90;;;;;;5044647;28;20176;-79
2021/10/24 02:00:56;;;;;;;3.22;2.80;;;7.80;99.90;;;;;;5028353;28;20133;-78
2021/10/24 02:03:22;;;;;;;3.92;3.40;;;7.80;99.90;;;;;;5011063;28;20046;-78
2021/10/24 02:05:48;;;;;;;3.47;2.40;;;7.70;99.90;;;;;;5012008;28;20504;-78
2021/10/24 02:08:14;;;;;;;9.85;3.42;;;7.70;99.90;;;;;;5022319;28;20045;-78
2021/10/24 02:10:41;;;;;;;4.82;2.58;;;7.70;99.90;;;;;;5029186;28;20049;-78
2021/10/24 02:13:08;;;;;;;4.70;2.25;;;7.60;99.90;;;;;;5015023;28;20041;-78
2021/10/24 02:15:35;;;;;;;4.75;3.85;;;7.60;99.90;;;;;;4994095;28;20152;-78
2021/10/24 02:18:01;;;;;;;6.20;3.08;;;7.60;99.90;;;;;;5013840;28;20061;-78
2021/10/24 02:20:27;;;;;;;2.85;2.30;;;7.50;99.90;;;;;;5023721;28;20045;-77
2021/10/24 02:22:53;;;;;;;5.28;3.38;;;7.40;99.90;;;;;;5045921;28;20041;-77
2021/10/24 02:25:20;;;;;;;2.47;2.13;;;7.30;99.90;;;;;;5014327;28;20048;-78
2021/10/24 02:27:45;;;;;;;5.80;3.17;;;7.30;99.90;;;;;;5012385;28;20037;-78
2021/10/24 02:30:12;;;;;;;5.72;2.65;;;7.30;99.90;;;;;;5010262;28;20112;-77
2021/10/24 02:32:38;;;;;;;5.53;3.47;;;7.30;99.90;;;;;;5018794;28;20492;-76
2021/10/24 02:35:05;;;;;;;5.30;4.15;;;7.20;99.90;;;;;;5011666;28;20069;-77
2021/10/24 02:37:31;;;;;;;8.77;4.05;;;7.20;99.90;;;;;;5014314;28;20483;-78
2021/10/24 02:39:57;;;;;;;4.57;3.75;;;7.20;99.90;;;;;;5014584;28;20089;-78
2021/10/24 02:42:23;;;;;;;3.72;3.22;;;7.20;99.90;;;;;;5046915;28;20160;-78
2021/10/24 02:44:48;;;;;;;5.35;3.08;;;7.20;99.90;;;;;;5014632;28;20128;-78
2021/10/24 02:47:17;;;;;;;4.78;3.15;;;7.10;99.90;;;;;;5050212;28;20494;-78
2021/10/24 02:49:43;;;;;;;5.03;3.40;;;7.10;99.90;;;;;;5046940;28;20056;-78
2021/10/24 02:52:08;;;;;;;8.18;4.57;;;7.10;99.90;;;;;;5014203;28;20046;-77
2021/10/24 02:54:34;;;;;;;5.53;3.33;;;7.00;99.90;;;;;;5026989;28;20435;-78
2021/10/24 02:57:02;;;;;;;4.50;3.47;;;6.90;99.90;;;;;;5032697;28;20068;-79
2021/10/24 02:59:28;;;;;;;4.88;4.05;;;7.00;99.90;;;;;;5029868;28;20084;-78
2021/10/24 03:01:53;;;;;;;7.38;4.10;;;6.90;99.90;;;;;;5015655;28;20077;-78
2021/10/24 03:04:19;;;;;;;2.58;2.13;;;6.90;99.90;;;;;;5012866;28;20046;-78
2021/10/24 03:06:45;;;;;;;4.88;2.67;;;6.90;99.90;;;;;;5026464;28;20049;-78
2021/10/24 03:09:11;;;;;;;6.85;3.85;;;6.90;99.90;;;;;;5053452;28;20483;-78
2021/10/24 03:11:37;;;;;;;3.83;3.30;;;6.90;99.90;;;;;;5021343;28;20408;-78
2021/10/24 03:14:02;;;;;;;12.27;5.43;;;6.80;99.90;;;;;;5013726;28;20073;-78
2021/10/24 03:16:28;;;;;;;3.97;3.38;;;6.80;99.90;;;;;;5025811;28;20050;-78
2021/10/24 03:18:54;;;;;;;3.75;2.40;;;6.70;99.90;;;;;;4997856;28;20085;-78
2021/10/24 03:21:20;;;;;;;8.82;3.58;;;6.60;99.90;;;;;;5013559;28;20072;-79
2021/10/24 03:23:45;;;;;;;5.63;3.00;;;6.60;99.90;;;;;;5047979;28;20057;-78
2021/10/24 03:26:11;;;;;;;6.53;3.65;;;6.60;99.90;;;;;;5013408;28;20057;-78
2021/10/24 03:28:37;;;;;;;8.50;4.55;;;6.60;99.90;;;;;;5030556;28;20488;-79
2021/10/24 03:31:03;;;;;;;3.22;2.72;;;6.50;99.90;;;;;;5046626;28;20053;-78
2021/10/24 03:33:29;;;;;;;6.88;3.63;;;6.50;99.90;;;;;;5013432;28;20081;-78
2021/10/24 03:35:55;;;;;;;10.38;3.85;;;6.50;99.90;;;;;;5012990;28;20128;-79
2021/10/24 03:38:21;;;;;;;10.85;5.07;;;6.50;99.90;;;;;;5028464;28;20060;-78
2021/10/24 03:40:46;;;;;;;6.00;5.10;;;6.40;99.90;;;;;;5004327;28;20046;-78
2021/10/24 03:43:13;;;;;;;4.68;4.00;;;6.30;99.90;;;;;;5013142;28;20395;-78
2021/10/24 03:45:39;;;;;;;;;;;6.30;99.90;;;;;;5046814;28;20050;-78
2021/10/24 03:48:05;;;;;;;6.95;3.58;;;6.20;99.90;;;;;;5050095;28;19917;-78
2021/10/24 03:50:30;;;;;;;5.18;2.97;;;6.20;99.90;;;;;;5011547;28;20124;-79
2021/10/24 03:52:56;;;;;;;6.85;4.35;;;6.10;99.90;;;;;;5013208;28;20165;-78
2021/10/24 03:55:22;;;;;;;6.88;3.90;;;6.20;99.90;;;;;;5012440;28;20046;-79
2021/10/24 03:57:48;;;;;;;6.95;4.53;;;6.00;99.90;;;;;;5032857;28;20380;-79
2021/10/24 04:00:13;;;;;;;8.10;4.00;;;6.00;99.90;;;;;;5029340;28;20057;-79
2021/10/24 04:02:57;;;;;;;4.63;4.22;;;6.00;99.90;;;;;;5031702;28;20402;-78
2021/10/24 04:05:25;;;;;;;6.45;4.13;;;6.00;99.90;;;;;;5017417;28;20053;-78
2021/10/24 04:07:51;;;;;;;5.07;4.57;;;5.90;99.90;;;;;;5013885;28;20081;-79
2021/10/24 04:10:19;;;;;;;8.60;5.35;;;6.00;99.90;;;;;;5012745;28;20054;-78
2021/10/24 04:12:45;;;;;;;6.05;3.80;;;5.90;99.90;;;;;;5013958;28;20472;-78
2021/10/24 04:15:12;;;;;;;3.60;3.05;;;5.90;99.90;;;;;;5029148;28;20129;-79
2021/10/24 04:17:38;;;;;;;6.60;4.25;;;5.80;99.90;;;;;;5025975;28;20046;-78
2021/10/24 04:20:09;;;;;;;4.35;4.03;;;5.80;99.90;;;;;;5045858;28;20045;-78
2021/10/24 04:22:35;;;;;;;6.05;4.25;;;5.70;99.90;;;;;;5021560;28;20045;-78
2021/10/24 04:25:01;;;;;;;7.05;4.15;;;5.80;99.90;;;;;;5021686;28;20046;-78
2021/10/24 04:27:28;;;;;;;5.45;4.78;;;5.70;99.90;;;;;;5014212;28;20478;-79
2021/10/24 04:29:54;;;;;;;5.07;4.65;;;5.60;99.90;;;;;;5028771;28;20045;-79
2021/10/24 04:32:20;;;;;;;5.03;4.40;;;5.60;99.90;;;;;;5029161;28;20498;-78
2021/10/24 04:34:46;;;;;;;8.32;4.65;;;5.50;99.90;;;;;;5012515;28;20046;-78
2021/10/24 04:37:12;;;;;;;5.65;4.47;;;5.50;99.90;;;;;;5012385;28;20045;-78
2021/10/24 04:39:38;;;;;;;5.72;4.85;;;5.40;99.90;;;;;;5053353;28;20072;-78
2021/10/24 04:42:04;;;;;;;;;;;5.40;99.90;;;;;;5046031;28;20111;-79
2021/10/24 04:44:30;;;;;;;6.53;4.30;;;5.30;99.90;;;;;;5044735;28;20367;-78
2021/10/24 04:46:55;;;;;;;5.57;3.97;;;5.30;99.90;;;;;;5018618;28;20055;-78
2021/10/24 04:49:21;;;;;;;6.68;4.03;;;5.30;99.90;;;;;;5027516;28;20046;-78
2021/10/24 04:51:47;;;;;;;6.18;3.78;;;5.20;99.90;;;;;;5020972;28;20411;-78
2021/10/24 04:54:13;;;;;;;6.07;4.65;;;5.30;99.90;;;;;;5028395;28;20522;-78
2021/10/24 04:56:39;;;;;;;4.90;3.78;;;5.10;99.90;;;;;;5012407;28;20044;-78
2021/10/24 04:59:04;;;;;;;5.25;4.50;;;5.30;99.90;;;;;;5024093;28;20080;-78
2021/10/24 05:01:30;;;;;;;7.93;5.47;;;5.50;99.90;;;;;;5010962;28;20495;-78
2021/10/24 05:03:56;;;;;;;9.07;5.10;;;5.30;99.90;;;;;;5040012;28;20053;-78
2021/10/24 05:06:21;;;;;;;7.47;4.13;;;5.50;99.90;;;;;;5016622;28;20057;-78
2021/10/24 05:08:47;;;;;;;5.28;3.63;;;;;;;;;;5011613;28;20033;-78
2021/10/24 05:11:14;;;;;;;5.45;4.32;;;5.00;99.90;;;;;;5023205;28;20446;-79
2021/10/24 05:13:44;;;;;;;10.63;4.78;;;5.10;99.90;;;;;;5013373;28;20068;-79
2021/10/24 05:16:09;;;;;;;7.20;3.72;;;5.00;99.90;;;;;;5034864;28;20041;-79
2021/10/24 05:18:35;;;;;;;9.15;4.63;;;4.90;99.90;;;;;;5012417;28;20057;-79
2021/10/24 05:21:07;;;;;;;7.68;5.15;;;4.90;99.90;;;;;;5011515;28;20088;-79
2021/10/24 05:23:32;;;;;;;7.38;4.47;;;4.90;99.90;;;;;;5060820;28;20042;-79
2021/10/24 05:26:00;;;;;;;4.25;3.67;;;4.90;99.90;;;;;;5011489;28;20513;-79
2021/10/24 05:28:26;;;;;;;11.45;6.18;;;4.80;99.90;;;;;;5008530;28;20037;-79
2021/10/24 05:30:51;;;;;;;8.45;5.05;;;4.90;99.90;;;;;;5027267;28;20434;-79
2021/10/24 05:33:17;;;;;;;8.90;4.15;;;4.90;99.90;;;;;;5008889;28;20575;-80
2021/10/24 05:35:49;;;;;;;7.10;3.50;;;4.80;99.90;;;;;;5012247;28;20049;-79
2021/10/24 05:38:16;;;;;;;6.57;3.90;;;4.80;99.90;;;;;;5009554;28;20045;-79
2021/10/24 05:40:41;;;;;;;7.35;4.55;;;4.80;99.90;;;;;;5044269;28;20046;-78
2021/10/24 05:43:08;;;;;;;5.85;3.22;;;4.80;99.90;;;;;;5043501;28;20058;-79
2021/10/24 05:45:35;;;;;;;8.35;4.30;;;4.70;99.90;;;;;;5011187;28;20076;-79
2021/10/24 05:48:02;;;;;;;5.07;4.55;;;4.70;99.90;;;;;;5032047;28;20069;-80
2021/10/24 05:50:28;;;;;;;9.23;3.75;;;4.70;99.90;;;;;;5011124;28;20286;-79
2021/10/24 05:52:53;;;;;;;6.25;3.25;;;4.70;99.90;;;;;;5024636;28;20427;-79
2021/10/24 05:55:19;;;;;;;10.50;4.10;;;4.70;99.90;;;;;;5038914;28;20460;-80
2021/10/24 05:57:46;;;;;;;5.88;3.22;;;4.70;99.90;;;;;;5014352;28;20046;-79
2021/10/24 06:00:12;;;;;;;3.58;2.83;;;4.70;99.90;;;;;;5011637;28;20188;-79
2021/10/24 06:02:38;;;;;;;4.80;3.58;;;4.60;99.90;;;;;;5029138;28;20057;-80
2021/10/24 06:05:04;;;;;;;6.90;3.83;;;4.60;99.90;;;;;;5018087;28;20050;-79
2021/10/24 06:07:32;;;;;;;4.10;3.70;;;4.60;99.90;;;;;;5009429;28;20104;-79
2021/10/24 06:10:06;;;;;;;3.70;2.67;;;4.60;99.90;;;;;;5027369;28;20053;-79
2021/10/24 06:15:06;;;;;;;6.53;4.93;;;4.50;99.90;;;;;;5032174;28;20165;-79
2021/10/24 06:17:32;;;;;;;8.18;3.75;;;4.50;99.90;;;;;;5040609;28;20049;-80
2021/10/24 06:19:58;;;;;;;;;;;4.40;99.90;;;;;;5021392;28;20105;-79
2021/10/24 06:22:24;;;;;;;11.05;4.43;;;4.50;99.90;;;;;;5027835;28;19999;-80
2021/10/24 06:24:50;;;;;;;6.75;4.05;;;4.50;99.90;;;;;;5062446;28;20041;-78
2021/10/24 06:27:15;;;;;;;11.73;5.78;;;4.50;99.90;;;;;;5027881;28;20384;-80
2021/10/24 06:29:41;;;;;;;3.58;2.90;;;4.70;99.90;;;;;;5031984;28;20046;-79
2021/10/24 06:32:07;;;;;;;9.77;4.25;;;4.50;99.90;;;;;;5018670;28;20045;-80
2021/10/24 06:34:33;;;;;;;5.38;4.80;;;4.60;99.90;;;;;;5014262;28;20045;-80
2021/10/24 06:36:58;;;;;;;4.80;3.58;;;4.60;99.90;;;;;;5055755;28;20051;-78
2021/10/24 06:39:24;;;;;;;5.30;2.55;;;4.60;99.90;;;;;;5028141;28;20030;-80
2021/10/24 06:41:50;;;;;;;7.65;4.55;;;4.50;99.90;;;;;;5016363;28;20048;-80
2021/10/24 06:44:16;;;;;;;4.32;3.92;;;4.70;99.90;;;;;;5025813;28;20399;-78
2021/10/24 06:46:41;;;;;;;11.15;5.55;;;4.60;99.90;;;;;;5002395;28;20046;-78
2021/10/24 06:49:07;;;;;;;6.88;4.07;;;4.60;99.90;;;;;;5031080;28;20056;-79
2021/10/24 06:51:33;;;;;;;4.60;3.97;;;4.60;99.90;;;;;;5039640;28;20057;-78
2021/10/24 06:53:59;;;;;;;4.78;4.38;;;4.70;99.90;;;;;;5027939;28;20069;-78
2021/10/24 06:56:25;;;;;;;3.80;2.53;;;4.60;99.90;;;;;;5015423;28;20383;-78
2021/10/24 06:58:51;;;;;;;9.07;5.10;;;4.70;99.90;;;;;;5044406;28;20064;-78
2021/10/24 07:01:16;;;;;;;4.15;3.83;;;4.70;99.90;;;;;;5018627;28;20392;-78
2021/10/24 07:03:42;;;;;;;3.95;3.55;;;4.70;99.90;;;;;;5031588;28;20077;-78
2021/10/24 07:06:08;;;;;;;3.78;2.88;;;4.80;99.90;;;;;;5030389;28;20502;-79
2021/10/24 07:08:33;;;;;;;8.43;5.30;;;4.70;99.90;;;;;;5009353;28;20045;-79
2021/10/24 07:10:59;;;;;;;5.15;3.22;;;4.80;99.90;;;;;;5026714;28;20038;-78
2021/10/24 07:13:25;;;;;;;6.93;3.78;;;4.80;99.90;;;;;;5016783;28;20050;-79
2021/10/24 07:15:51;;;;;;;9.93;3.75;;;4.90;99.90;;;;;;5016181;28;20046;-80
2021/10/24 07:18:17;;;;;;;5.35;3.25;;;4.90;99.90;;;;;;5016162;28;20080;-79
2021/10/24 07:20:43;;;;;;;5.00;3.03;;;4.90;99.90;;;;;;5018415;28;20046;-79
2021/10/24 07:23:09;;;;;;;4.70;4.20;;;5.00;99.90;;;;;;5034452;28;20045;-79
2021/10/24 07:25:34;;;;;;;9.25;3.35;;;5.00;99.90;;;;;;5040000;28;20467;-80
2021/10/24 07:28:00;;;;;;;4.85;3.97;;;5.10;99.90;;;;;;5031206;28;20050;-79
2021/10/24 07:30:26;;;;;;;3.90;2.72;;;5.20;99.90;;;;;;5030055;28;20062;-80
2021/10/24 07:32:52;;;;;;;6.05;4.45;;;5.20;99.90;;;;;;5030839;28;20444;-79
2021/10/24 07:35:18;;;;;;;4.03;2.60;;;5.20;99.90;;;;;;5029860;28;20042;-79
2021/10/24 07:37:44;;;;;;;4.70;3.70;;;5.30;99.90;;;;;;5028140;28;20045;-80
2021/10/24 07:40:11;;;;;;;5.68;4.38;;;5.50;99.90;;;;;;5030470;28;20483;-80
2021/10/24 07:42:39;;;;;;;5.30;4.20;;;5.40;99.90;;;;;;5043570;28;20477;-80
2021/10/24 07:45:05;;;;;;;12.32;5.35;;;5.50;99.90;;;;;;5026394;28;20060;-79
2021/10/24 07:47:31;;;;;;;3.72;2.88;;;5.60;99.90;;;;;;5026731;28;20403;-79
2021/10/24 07:50:01;;;;;;;4.72;3.30;;;5.60;99.90;;;;;;5017024;28;20053;-80
2021/10/24 07:52:27;;;;;;;4.53;3.58;;;5.70;99.90;;;;;;5046449;28;20053;-80
2021/10/24 07:54:53;;;;;;;4.88;3.08;;;5.80;99.90;;;;;;5015091;28;20395;-79
2021/10/24 07:57:20;;;;;;;2.30;2.10;;;5.80;99.90;;;;;;5042266;28;20196;-79
2021/10/24 07:59:47;;;;;;;3.08;2.63;;;5.90;99.90;;;;;;5046744;28;20117;-78
2021/10/24 08:02:13;;;;;;;;;;;6.00;99.90;;;;;;5025977;28;20038;-78
2021/10/24 08:04:39;;;;;;;8.52;4.47;;;6.00;99.90;;;;;;5054052;28;19925;-78
2021/10/24 08:07:05;;;;;;;5.60;4.40;;;6.10;99.90;;;;;;5015521;28;20041;-78
2021/10/24 08:09:31;;;;;;;5.30;3.10;;;6.20;99.90;;;;;;5018139;28;20057;-78
2021/10/24 08:11:59;;;;;;;5.57;3.60;;;6.80;99.90;;;;;;5015072;28;20061;-78
2021/10/24 08:14:25;;;;;;;5.13;3.58;;;6.40;99.90;;;;;;5046111;28;20041;-79
2021/10/24 08:16:50;;;;;;;4.45;3.25;;;6.50;99.90;;;;;;5014487;28;20080;-79
2021/10/24 08:19:18;;;;;;;4.78;2.97;;;6.60;99.90;;;;;;5012215;28;20345;-79
2021/10/24 08:21:45;;;;;;;4.55;3.85;;;6.70;99.90;;;;;;5025574;28;20368;-78
2021/10/24 08:24:10;;;;;;;8.30;3.70;;;6.80;99.90;;;;;;5060672;28;20483;-78
2021/10/24 08:26:36;;;;;;;14.48;3.80;;;6.90;99.90;;;;;;5033962;28;20085;-78
2021/10/24 08:29:02;;;;;;;14.63;5.47;;;6.90;99.90;;;;;;5013112;28;20097;-78
2021/10/24 08:31:29;;;;;;;7.47;3.67;;;7.00;99.90;;;;;;5045018;28;20084;-77
2021/10/24 08:33:59;;;;;;;5.55;4.20;;;7.10;99.90;;;;;;5011742;28;20049;-78
2021/10/24 08:36:27;;;;;;;8.15;4.47;;;7.20;99.90;;;;;;5028030;28;20533;-78
2021/10/24 08:38:55;;;;;;;4.25;3.70;;;7.30;99.90;;;;;;5027056;28;20034;-79
2021/10/24 08:41:27;;;;;;;7.13;3.72;;;7.40;99.90;;;;;;5014922;28;20125;-78
2021/10/24 08:43:53;;;;;;;8.95;3.33;;;7.50;99.90;;;;;;5012988;28;20063;-79
2021/10/24 08:46:20;;;;;;;4.75;3.47;;;7.50;99.90;;;;;;5013455;28;20060;-78
2021/10/24 08:48:48;;;;;;;3.58;3.25;;;7.60;99.90;;;;;;5026303;28;20378;-79
2021/10/24 08:51:17;;;;;;;4.07;3.08;;;7.60;99.90;;;;;;5027217;28;20045;-79
2021/10/24 08:53:44;;;;;;;4.22;2.55;;;7.70;99.90;;;;;;5024597;28;20391;-78
2021/10/24 08:56:17;;;;;;;7.47;2.58;;;7.80;99.90;;;;;;5015130;28;20041;-78
2021/10/24 08:58:44;;;;;;;6.82;3.38;;;7.90;99.90;;;;;;5029358;28;20049;-79
2021/10/24 09:01:09;;;;;;;5.43;3.08;;;8.00;99.90;;;;;;5052898;28;20047;-78
2021/10/24 09:03:37;;;;;;;2.80;2.45;;;8.00;99.90;;;;;;5029482;28;20041;-78
2021/10/24 09:06:02;;;;;;;6.70;3.08;;;8.10;99.90;;;;;;5026381;28;20049;-78
2021/10/24 09:08:28;;;;;;;3.78;2.97;;;8.20;99.90;;;;;;5006343;28;20053;-79
2021/10/24 09:10:57;;;;;;;4.85;3.63;;;8.30;99.90;;;;;;5029916;28;20053;-79
2021/10/24 09:13:26;;;;;;;7.18;3.33;;;8.40;99.90;;;;;;5025645;28;20045;-79
2021/10/24 09:16:03;;;;;;;5.43;3.50;;;8.50;99.90;;;;;;5046597;28;20167;-78
2021/10/24 09:18:37;;;;;;;7.75;4.18;;;8.60;99.90;;;;;;5065248;28;20041;-81
2021/10/24 09:21:29;;;;;;;4.93;3.25;;;8.70;99.90;;;;;;5033595;28;20743;-78
2021/10/24 09:24:09;;;;;;;7.50;3.83;;;8.70;99.90;;;;;;5030296;28;20412;-79
2021/10/24 09:26:36;;;;;;;4.00;2.70;;;8.80;99.90;;;;;;5025193;28;20083;-78
2021/10/24 09:29:04;;;;;;;4.75;2.70;;;8.90;99.90;;;;;;5012090;28;20053;-78
2021/10/24 09:31:39;;;;;;;3.33;2.63;;;9.00;99.90;;;;;;5011563;28;20057;-78
2021/10/24 09:34:25;;;;;;;5.65;3.38;;;9.00;99.90;;;;;;5027981;28;20041;-78
2021/10/24 09:37:01;;;;;;;7.10;4.20;;;9.20;99.90;;;;;;5045998;28;20049;-78
2021/10/24 09:39:33;;;;;;;7.00;2.83;;;9.20;99.90;;;;;;5053051;28;20120;-78
2021/10/24 09:42:19;;;;;;;3.45;3.03;;;9.30;99.90;;;;;;5025310;28;20089;-79
2021/10/24 09:45:00;;;;;;;5.85;3.28;;;9.40;99.90;;;;;;5044234;28;20196;-78
2021/10/24 09:47:26;;;;;;;3.13;2.42;;;9.50;99.90;;;;;;5014217;28;20044;-79
2021/10/24 09:49:52;;;;;;;;;;;9.60;99.90;;;;;;5026551;28;20053;-78
2021/10/24 09:52:26;;;;;;;4.68;3.38;;;9.70;99.90;;;;;;5021016;28;19925;-78
2021/10/24 09:54:52;;;;;;;4.85;3.42;;;9.70;99.90;;;;;;5016040;28;20049;-79
2021/10/24 09:57:21;;;;;;;3.88;1.40;;;9.90;99.90;;;;;;5013007;28;20395;-80
2021/10/24 09:59:49;;;;;;;3.20;2.25;;;;;;;;;;5004084;28;20128;-79
2021/10/24 10:02:19;;;;;;;3.70;2.47;;;9.90;99.90;;;;;;5018100;28;20041;-79
2021/10/24 10:04:45;;;;;;;4.32;2.97;;;10.00;99.90;;;;;;5039110;28;20392;-78
2021/10/24 10:07:12;;;;;;;9.18;3.45;;;10.10;99.90;;;;;;5011681;28;20050;-78
2021/10/24 10:09:39;;;;;;;4.50;2.10;;;10.10;99.90;;;;;;5011548;28;20046;-79
2021/10/24 10:12:06;;;;;;;7.03;2.40;;;10.10;99.90;;;;;;5014201;28;20034;-78
2021/10/24 10:14:35;;;;;;;3.75;2.33;;;10.20;99.90;;;;;;5011275;28;20034;-78
2021/10/24 10:17:08;;;;;;;5.65;2.05;;;10.30;99.90;;;;;;5045900;28;20034;-79
2021/10/24 10:19:42;;;;;;;6.18;2.88;;;10.40;99.90;;;;;;5005119;28;20455;-79
2021/10/24 10:22:22;;;;;;;15.13;2.75;;;10.40;99.90;;;;;;5059922;28;20046;-78
2021/10/24 10:25:03;;;;;;;4.25;2.70;;;10.50;99.90;;;;;;5023405;28;20046;-79
2021/10/24 10:27:29;;;;;;;2.55;1.77;;;10.60;99.90;;;;;;5010223;28;20403;-79
2021/10/24 10:29:57;;;;;;;8.35;2.70;;;10.70;99.90;;;;;;5011145;28;20052;-78
2021/10/24 10:32:38;;;;;;;4.78;2.55;;;10.70;99.90;;;;;;5017203;28;20056;-78
2021/10/24 10:35:10;;;;;;;5.28;2.78;;;10.70;99.90;;;;;;5032100;28;20116;-78
2021/10/24 10:37:51;;;;;;;6.55;2.40;;;10.80;99.90;;;;;;5035525;28;20049;-78
2021/10/24 10:40:16;;;;;;;4.90;3.20;;;10.90;99.90;;;;;;5010708;28;20046;-78
2021/10/24 10:42:43;;;;;;;3.03;2.22;;;10.90;99.90;;;;;;5011107;28;20509;-79
2021/10/24 10:45:35;;;;;;;4.80;2.38;;;11.00;99.90;;;;;;5016175;28;20058;-78
2021/10/24 10:48:21;;;;;;;3.97;2.97;;;11.00;99.90;;;;;;5015316;28;20073;-78
2021/10/24 10:50:48;;;;;;;11.02;3.10;;;11.10;99.90;;;;;;5044263;28;20046;-79
2021/10/24 10:53:38;;;;;;;3.28;2.60;;;11.20;99.90;;;;;;5011335;28;20069;-79
2021/10/24 10:56:07;;;;;;;3.67;2.55;;;11.20;99.90;;;;;;5012672;28;20042;-80
2021/10/24 10:58:37;;;;;;;2.42;2.17;;;11.20;99.90;;;;;;5027105;28;20402;-79
2021/10/24 11:01:05;;;;;;;4.57;2.58;;;11.30;99.90;;;;;;5017757;28;20038;-78
2021/10/24 11:03:52;;;;;;;4.50;2.10;;;11.30;99.90;;;;;;5026401;28;20402;-79
2021/10/24 11:06:23;;;;;;;4.82;2.97;;;11.30;99.90;;;;;;5026604;28;20045;-79
2021/10/24 11:09:11;;;;;;;3.45;2.90;;;11.40;99.90;;;;;;5050779;28;20052;-78
2021/10/24 11:11:55;;;;;;;4.13;2.47;;;11.50;99.90;;;;;;5038058;28;20049;-79
2021/10/24 11:14:33;;;;;;;2.00;1.80;;;11.50;99.90;;;;;;5042566;28;20040;-78
2021/10/24 11:17:00;;;;;;;7.68;3.65;;;11.60;99.90;;;;;;5030211;28;20452;-79
2021/10/24 11:19:29;;;;;;;3.88;2.72;;;11.60;99.90;;;;;;5029471;28;20117;-78
2021/10/24 11:22:00;;;;;;;3.92;2.70;;;11.70;99.90;;;;;;5027769;28;20092;-79
2021/10/24 11:24:27;;;;;;;3.55;2.15;;;11.70;99.90;;;;;;5047783;28;20056;-79
2021/10/24 11:26:56;;;;;;;3.72;2.42;;;11.70;99.90;;;;;;5032998;28;20048;-77
2021/10/24 11:29:23;;;;;;;4.95;1.85;;;11.70;99.90;;;;;;5022075;28;20380;-77
2021/10/24 11:31:50;;;;;;;3.88;2.60;;;11.70;99.90;;;;;;5031817;28;20140;-78
2021/10/24 11:34:32;;;;;;;1.60;1.48;;;11.80;99.90;;;;;;5033191;28;20042;-79
2021/10/24 11:36:58;;;;;;;5.05;2.63;;;11.80;99.90;;;;;;5033901;28;20034;-78
2021/10/24 11:39:24;;;;;;;2.30;1.60;;;11.90;99.90;;;;;;5008495;28;20034;-77
2021/10/24 11:42:03;;;;;;;;;;;11.90;99.90;;;;;;5044407;28;20037;-78
2021/10/24 11:44:28;;;;;;;4.65;2.03;;;12.00;99.90;;;;;;5029164;28;20266;-80
2021/10/24 11:47:14;;;;;;;1.63;1.30;;;12.00;99.90;;;;;;4983831;28;20049;-79
2021/10/24 11:49:51;;;;;;;2.42;1.67;;;12.10;99.90;;;;;;5029500;28;20038;-80
2021/10/24 11:52:25;;;;;;;3.25;1.27;;;12.10;99.90;;;;;;5027082;28;20045;-79
2021/10/24 11:55:07;;;;;;;2.45;1.77;;;12.20;99.90;;;;;;5042754;28;20387;-78
2021/10/24 11:57:47;;;;;;;2.83;1.70;;;12.20;99.90;;;;;;5031087;28;20570;-78
2021/10/24 12:00:20;;;;;;;1.98;1.77;;;12.30;99.90;;;;;;5029837;28;20494;-78
2021/10/24 12:02:59;;;;;;;3.72;1.38;;;12.40;99.90;;;;;;5032321;28;20079;-79
2021/10/24 12:05:30;;;;;;;1.88;1.67;;;12.40;99.90;;;;;;5029642;28;20475;-79
2021/10/24 12:07:59;;;;;;;2.45;1.60;;;12.50;99.90;;;;;;5046892;28;20100;-79
2021/10/24 12:10:37;;;;;;;3.13;2.25;;;12.50;99.90;;;;;;5031465;28;20125;-80
2021/10/24 12:13:34;;;;;;;2.30;1.52;;;12.50;99.90;;;;;;5030006;28;20488;-78
2021/10/24 12:16:00;;;;;;;2.58;1.50;;;12.50;99.90;;;;;;5046213;28;20053;-79
2021/10/24 12:18:34;;;;;;;3.65;1.58;;;12.50;99.90;;;;;;5011001;28;20046;-79
2021/10/24 12:21:02;;;;;;;2.33;1.50;;;12.50;99.90;;;;;;5034292;28;20041;-80
2021/10/24 12:23:31;;;;;;;1.45;1.30;;;12.50;99.90;;;;;;5035365;28;20053;-79
2021/10/24 12:25:59;;;;;;;2.17;1.55;;;12.60;99.90;;;;;;5025772;28;20041;-79
2021/10/24 12:28:41;;;;;;;2.55;1.60;;;12.60;99.90;;;;;;5017307;28;20050;-79
2021/10/24 12:31:16;;;;;;;1.95;1.50;;;12.60;99.90;;;;;;5025809;28;20085;-79
2021/10/24 12:33:43;;;;;;;2.70;2.03;;;12.70;99.90;;;;;;5035154;28;20046;-78
2021/10/24 12:36:13;;;;;;;2.55;1.77;;;12.70;99.90;;;;;;5030498;28;20537;-78
2021/10/24 12:38:50;;;;;;;3.15;1.23;;;12.70;99.90;;;;;;5034341;28;20042;-81
2021/10/24 12:41:36;;;;;;;3.28;2.20;;;12.70;99.90;;;;;;5019834;28;20495;-78
2021/10/24 12:44:03;;;;;;;3.17;2.17;;;12.70;99.90;;;;;;5033111;28;20053;-78
2021/10/24 12:46:31;;;;;;;4.75;1.65;;;12.70;99.90;;;;;;5017365;28;20038;-80
2021/10/24 12:48:57;;;;;;;4.03;2.22;;;12.80;99.90;;;;;;5027137;28;20487;-79
2021/10/24 12:51:30;;;;;;;3.42;1.70;;;12.80;99.90;;;;;;5031796;28;20482;-79
2021/10/24 12:53:58;;;;;;;2.25;1.90;;;12.90;99.90;;;;;;5031040;28;20041;-79
2021/10/24 12:56:24;;;;;;;2.90;1.63;;;12.90;99.90;;;;;;5032208;28;20203;-79
2021/10/24 12:58:53;;;;;;;4.40;2.53;;;12.90;99.90;;;;;;5013831;28;20038;-78
2021/10/24 13:01:30;;;;;;;2.60;1.67;;;13.00;99.90;;;;;;5017754;28;20125;-78
2021/10/24 13:03:58;;;;;;;1.77;1.63;;;13.00;99.90;;;;;;5024818;28;20135;-79
2021/10/24 13:06:25;;;;;;;2.13;1.80;;;13.10;99.90;;;;;;5045686;28;20053;-78